createdAt,value
2023-04-19T00:01:16.711Z,92.89268998748489
2023-04-19T00:04:17.716Z,92.83648005107467
2023-04-19T00:07:18.717Z,92.58467569122047
2023-04-19T00:11:16.901Z,92.21533539628297
2023-04-19T00:14:17.298Z,92.18214494758185
2023-04-19T00:17:17.115Z,92.03705486906546
2023-04-19T00:21:17.322Z,92.20345913891285
2023-04-19T00:24:17.436Z,92.5018306726615
2023-04-19T00:27:16.617Z,92.59982855977883
2023-04-19T00:31:16.386Z,93.03519487535864
2023-04-19T00:34:17.072Z,93.28210386953528
2023-04-19T00:37:16.947Z,93.72670309969018
2023-04-19T00:41:16.523Z,94.23922740657267
2023-04-19T00:44:17.023Z,94.5765883541544
2023-04-19T00:47:16.923Z,94.60094008001931
2023-04-19T00:51:16.661Z,94.7310611598775
2023-04-19T00:54:18.410Z,94.97498331731936
2023-04-19T00:57:17.737Z,94.83421763088687
2023-04-19T01:01:15.975Z,95.01419970551039
2023-04-19T01:04:17.025Z,94.82912683770233
2023-04-19T01:07:17.116Z,94.78095252842606
2023-04-19T01:11:16.221Z,94.63754566293025
2023-04-19T01:14:17.123Z,94.43967378202088
2023-04-19T01:17:17.897Z,94.34495666490908
2023-04-19T01:21:17.487Z,94.48823190134381
2023-04-19T01:24:16.735Z,94.533870874285
2023-04-19T01:27:17.683Z,94.54566055052382
2023-04-19T01:31:15.943Z,94.70406095575045
2023-04-19T01:34:16.632Z,95.1668403012364
2023-04-19T01:37:16.331Z,95.47328865556538
2023-04-19T01:41:16.844Z,95.77558910008656
2023-04-19T01:44:17.234Z,95.77926299653662
2023-04-19T01:47:17.040Z,96.5834446694996
2023-04-19T01:51:17.706Z,97.27031827852537
2023-04-19T01:54:17.220Z,97.37942236329698
2023-04-19T01:57:17.047Z,97.89439914845283
2023-04-19T02:01:16.459Z,97.85112560168173
2023-04-19T02:04:19.366Z,97.87092988067998
2023-04-19T02:07:16.703Z,97.90782675586524
2023-04-19T02:11:16.521Z,97.6961745365091
2023-04-19T02:14:17.100Z,97.53242085602957
2023-04-19T02:17:17.073Z,97.5064757704827
2023-04-19T02:21:16.526Z,96.85601463390428
2023-04-19T02:24:17.177Z,96.78181106169001
2023-04-19T02:27:17.464Z,96.79016183605746
2023-04-19T02:31:16.357Z,96.8788948255222
2023-04-19T02:34:16.924Z,97.02988685338154
2023-04-19T02:37:17.706Z,97.12126844654792
2023-04-19T02:41:16.603Z,96.71042939495833
2023-04-19T02:44:16.970Z,96.41661556050664
2023-04-19T02:47:16.804Z,96.78883911186388
2023-04-19T02:51:17.252Z,96.97662399106845
2023-04-19T02:54:18.212Z,97.03016331314763
2023-04-19T02:57:16.850Z,96.90829061450266
2023-04-19T03:01:16.424Z,97.16475931538801
2023-04-19T03:04:17.751Z,97.50439529705949
2023-04-19T03:07:16.716Z,97.52992386428117
2023-04-19T03:11:17.240Z,97.50487250174717
2023-04-19T03:14:16.688Z,97.19201028736373
2023-04-19T03:17:16.668Z,97.16672199204962
2023-04-19T03:21:16.703Z,96.77598888187732
2023-04-19T03:24:18.284Z,96.77984032081764
2023-04-19T03:27:17.027Z,96.86229784896453
2023-04-19T03:31:16.889Z,96.83168450815077
2023-04-19T03:34:17.268Z,96.70701214908048
2023-04-19T03:37:16.937Z,96.73632798944442
2023-04-19T03:41:19.820Z,96.95965386543614
2023-04-19T03:44:16.661Z,97.02216585529392
2023-04-19T03:47:16.419Z,97.1390846858891
2023-04-19T03:51:16.705Z,97.18985439657529
2023-04-19T04:01:18.751Z,97.71779591408283
2023-04-19T04:04:17.441Z,97.81370715742534
2023-04-19T04:07:17.043Z,98.1181882201311
2023-04-19T04:11:16.933Z,98.24268104389259
2023-04-19T04:14:17.132Z,98.10673680727399
2023-04-19T04:17:17.045Z,98.1190650747981
2023-04-19T04:21:16.336Z,97.980988982231
2023-04-19T04:24:18.122Z,98.09579904370443
2023-04-19T04:27:20.445Z,97.97175678337894
2023-04-19T04:31:18.417Z,98.17684276768368
2023-04-19T04:34:16.947Z,98.34762222933385
2023-04-19T04:37:18.113Z,98.42604143252102
2023-04-19T04:41:16.818Z,98.96671602120296
2023-04-19T04:44:16.482Z,98.89748024596855
2023-04-19T04:47:17.089Z,98.94986084616268
2023-04-19T04:51:16.033Z,99.14357404609565
2023-04-19T04:54:16.872Z,99.13787916974366
2023-04-19T04:57:16.294Z,99.2931018601976
2023-04-19T05:01:19.858Z,99.11737327575104
2023-04-19T05:04:18.369Z,99.10699490655605
2023-04-19T05:07:16.973Z,99.26969113139182
2023-04-19T05:11:16.743Z,99.05561850886126
2023-04-19T05:14:16.712Z,98.88451528662817
2023-04-19T05:17:16.538Z,98.77676259935963
2023-04-19T05:21:16.455Z,99.38995966563111
2023-04-19T05:24:16.997Z,100
2023-04-19T05:27:16.607Z,100
2023-04-19T05:31:16.627Z,100
2023-04-19T05:34:18.042Z,100
2023-04-19T05:37:16.643Z,100
2023-04-19T05:41:15.952Z,100
2023-04-19T05:44:16.441Z,100
2023-04-19T05:47:17.742Z,100
2023-04-19T05:51:18.396Z,100
2023-04-19T05:54:17.732Z,100
2023-04-19T05:57:17.042Z,100
2023-04-19T06:01:16.960Z,100
2023-04-19T06:04:17.444Z,100
2023-04-19T06:07:30.969Z,100
2023-04-19T06:11:26.459Z,100
2023-04-19T06:14:17.761Z,100
2023-04-19T06:17:17.105Z,100
2023-04-19T06:21:16.606Z,100
2023-04-19T06:24:17.277Z,100
2023-04-19T06:27:16.800Z,100
2023-04-19T06:31:16.237Z,100
2023-04-19T06:34:17.140Z,100
2023-04-19T06:37:16.416Z,100
2023-04-19T06:41:16.400Z,100
2023-04-19T06:44:17.495Z,100
2023-04-19T06:47:17.326Z,100
2023-04-19T06:51:16.614Z,100
2023-04-19T06:54:17.525Z,100
2023-04-19T06:57:17.859Z,100
2023-04-19T07:01:16.313Z,100
2023-04-19T07:04:17.307Z,100
2023-04-19T07:07:16.937Z,100
2023-04-19T07:11:16.039Z,100
2023-04-19T07:14:17.582Z,100
2023-04-19T07:17:17.821Z,100
2023-04-19T07:21:16.166Z,100
2023-04-19T07:24:16.895Z,100
2023-04-19T07:27:16.857Z,100
2023-04-19T07:31:18.126Z,100
2023-04-19T07:34:16.835Z,100
2023-04-19T07:37:16.743Z,100
2023-04-19T07:41:16.900Z,100
2023-04-19T07:44:17.323Z,100
2023-04-19T07:47:17.172Z,100
2023-04-19T07:51:17.334Z,100
2023-04-19T07:54:18.505Z,100
2023-04-19T07:57:17.303Z,100
2023-04-19T08:01:17.703Z,100
2023-04-19T08:04:19.482Z,100
2023-04-19T08:07:17.077Z,100
2023-04-19T08:11:16.028Z,100
2023-04-19T08:14:28.461Z,100
2023-04-19T08:17:26.708Z,100
2023-04-19T08:21:16.400Z,100
2023-04-19T08:24:17.125Z,100
2023-04-19T08:27:16.985Z,100
2023-04-19T08:31:17.582Z,100
2023-04-19T08:34:17.830Z,100
2023-04-19T08:37:17.776Z,100
2023-04-19T08:41:18.844Z,100
2023-04-19T08:44:32.603Z,100
2023-04-19T08:47:27.281Z,100
2023-04-19T08:51:17.996Z,100
2023-04-19T08:54:18.963Z,100
2023-04-19T08:57:16.534Z,100
2023-04-19T09:01:26.820Z,100
2023-04-19T09:04:35.716Z,100
2023-04-19T09:07:25.450Z,100
2023-04-19T09:11:16.823Z,100
2023-04-19T09:14:19.400Z,100
2023-04-19T09:17:17.505Z,100
2023-04-19T09:21:27.734Z,100
2023-04-19T09:24:16.983Z,100
2023-04-19T09:27:25.954Z,100
2023-04-19T09:31:42.701Z,100
2023-04-19T09:34:18.150Z,100
2023-04-19T09:41:17.563Z,100
2023-04-19T09:47:26.195Z,100
2023-04-19T09:51:16.316Z,100
2023-04-19T09:54:17.766Z,100
2023-04-19T09:57:16.495Z,100
2023-04-19T10:11:17.095Z,100
2023-04-19T10:14:19.598Z,99.13197597342823
2023-04-19T10:17:16.777Z,97.67647460808622
2023-04-19T10:21:18.395Z,97.85704227013026
2023-04-19T10:24:19.048Z,96.72015869564363
2023-04-19T10:27:24.686Z,93.84631782221825
2023-04-19T10:31:19.527Z,93.51747997339457
2023-04-19T10:34:36.966Z,92.50397740617603
2023-04-19T10:37:20.610Z,92.40136447693001
2023-04-19T10:41:18.718Z,90.3809215021748
2023-04-19T10:44:16.553Z,89.05724317390758
2023-04-19T10:47:40.465Z,89.1437056257981
2023-04-19T10:51:17.546Z,87.36260819365494
2023-04-19T10:54:28.441Z,86.84143281512112
2023-04-19T10:57:16.366Z,85.84511773361267
2023-04-19T11:01:32.464Z,83.7977529063545
2023-04-19T11:04:18.602Z,83.4677888716102
2023-04-19T11:07:19.009Z,79.97771376474064
2023-04-19T11:11:16.787Z,79.68854223254797
2023-04-19T11:14:19.468Z,78.06435843491802
2023-04-19T11:17:19.537Z,76.63548058611266
2023-04-19T11:21:17.793Z,76.95528220226588
2023-04-19T11:24:18.828Z,75.36833297317276
2023-04-19T11:27:16.812Z,76.30431708360538
2023-04-19T11:31:19.196Z,69.84618339471784
2023-04-19T11:34:16.507Z,70.7936171452448
2023-04-19T11:37:16.383Z,70.47175617991302
2023-04-19T11:41:16.238Z,69.8215401940183
2023-04-19T11:44:18.267Z,68.36602461565624
2023-04-19T11:47:17.428Z,65.70470141467248
2023-04-19T11:51:16.728Z,68.39683983654619
2023-04-19T11:54:18.336Z,66.7057179129477
2023-04-19T11:57:27.256Z,66.14229044765462
2023-04-19T12:01:18.923Z,69.47944610448572
2023-04-19T12:04:16.828Z,69.96721187041442
2023-04-19T12:07:16.408Z,69.37868606436066
2023-04-19T12:11:18.048Z,66.98177041983034
2023-04-19T12:14:18.255Z,63.467528898116974
2023-04-19T12:17:16.933Z,62.64465647981791
2023-04-19T12:21:25.873Z,61.522789571740596
2023-04-19T12:24:17.469Z,64.0083104275617
2023-04-19T12:27:17.910Z,62.26943952362259
2023-04-19T12:31:16.593Z,61.92026169175785
2023-04-19T12:34:16.076Z,58.76736777873614
2023-04-19T12:37:15.956Z,58.28021557011518
2023-04-19T12:41:16.496Z,58.1540379214068
2023-04-19T12:44:17.056Z,58.600336690728994
2023-04-19T12:47:18.197Z,58.62271350984885
2023-04-19T12:51:15.978Z,58.97052595008085
2023-04-19T12:54:16.827Z,58.52593413646225
2023-04-19T12:57:16.247Z,59.279620094861365
2023-04-19T13:01:16.718Z,60.95153399044806
2023-04-19T13:04:17.087Z,61.781273845469975
2023-04-19T13:07:16.550Z,61.12547501433773
2023-04-19T13:11:16.232Z,60.68374061619768
2023-04-19T13:14:16.390Z,60.72812245708488
2023-04-19T13:17:16.510Z,59.337829001882646
2023-04-19T13:21:16.402Z,59.48770506090655
2023-04-19T13:24:16.771Z,58.357986310433425
2023-04-19T13:27:16.998Z,57.90815438149986
2023-04-19T13:31:15.996Z,57.636426420747256
2023-04-19T13:34:16.624Z,57.72565311123424
2023-04-19T13:37:16.328Z,56.06902160808541
2023-04-19T13:41:15.723Z,54.42960547279601
2023-04-19T13:44:16.366Z,55.64732643608773
2023-04-19T13:47:16.177Z,55.48002484860054
2023-04-19T13:51:16.024Z,56.344553767270085
2023-04-19T13:54:19.010Z,55.911947903003565
2023-04-19T13:57:16.396Z,56.64099856326785
2023-04-19T14:01:16.260Z,55.940399462883455
2023-04-19T14:04:17.153Z,54.9875765078243
2023-04-19T14:07:17.065Z,55.58295916477688
2023-04-19T14:11:16.133Z,56.084181410851976
2023-04-19T14:14:16.990Z,56.00850650450967
2023-04-19T14:17:17.095Z,56.9753997358466
2023-04-19T14:21:16.653Z,57.40147000724814
2023-04-19T14:24:17.435Z,57.141508269669366
2023-04-19T14:27:17.125Z,57.56974659878979
2023-04-19T14:31:16.778Z,56.889225044277225
2023-04-19T14:34:17.092Z,57.38443636469009
2023-04-19T14:37:17.401Z,57.22075294080165
2023-04-19T14:41:16.015Z,58.66950649458367
2023-04-19T14:44:16.386Z,58.00877106196137
2023-04-19T14:47:16.744Z,57.42221647725017
2023-04-19T14:51:16.787Z,58.024957718878234
2023-04-19T14:54:17.031Z,57.892551590357776
2023-04-19T14:57:17.156Z,57.24991245603777
2023-04-19T15:01:16.971Z,56.844577771596434
2023-04-19T15:04:17.166Z,56.80881230321103
2023-04-19T15:07:16.984Z,57.98539141686532
2023-04-19T15:11:16.252Z,56.654881901145735
2023-04-19T15:14:16.255Z,56.46889579040044
2023-04-19T15:17:16.822Z,57.67346889045198
2023-04-19T15:21:18.640Z,56.4938862121076
2023-04-19T15:24:16.182Z,56.96166835474468
2023-04-19T15:27:16.101Z,57.72641625782657
2023-04-19T15:31:16.855Z,57.12030032240989
2023-04-19T15:34:16.983Z,57.401058692408895
2023-04-19T15:37:16.999Z,57.75068765825503
2023-04-19T15:41:16.370Z,58.054988687131775
2023-04-19T15:44:16.407Z,58.03454010427387
2023-04-19T15:47:16.263Z,58.510002079268574
2023-04-19T15:51:16.460Z,57.69704898014884
2023-04-19T15:54:16.730Z,58.1910539343321
2023-04-19T15:57:16.827Z,58.461931997033474
2023-04-19T16:01:19.058Z,59.534092109427895
2023-04-19T16:04:17.031Z,60.12757972769278
2023-04-19T16:07:16.822Z,59.44554539526488
2023-04-19T16:11:16.623Z,58.82322471011939
2023-04-19T16:14:16.914Z,58.04331694697175
2023-04-19T16:17:16.932Z,58.61208320187786
2023-04-19T16:21:16.117Z,59.0992423150195
2023-04-19T16:24:16.570Z,58.002298245542754
2023-04-19T16:27:16.408Z,56.77939960169177
2023-04-19T16:31:15.959Z,57.197113909405246
2023-04-19T16:34:17.097Z,56.72386282193249
2023-04-19T16:37:16.372Z,55.77949225515801
2023-04-19T16:41:16.398Z,56.60313881364216
2023-04-19T16:44:16.529Z,56.93706927743778
2023-04-19T16:47:16.878Z,56.27316008647908
2023-04-19T16:51:16.863Z,56.49616368720844
2023-04-19T16:54:17.058Z,57.6129477002392
2023-04-19T16:57:17.273Z,57.20076787297865
2023-04-19T17:01:16.814Z,57.67686199539302
2023-04-19T17:04:17.942Z,57.946142300130816
2023-04-19T17:07:16.990Z,56.66899130093965
2023-04-19T17:11:17.101Z,55.80792303626213
2023-04-19T17:14:17.137Z,56.01372079543815
2023-04-19T17:17:19.279Z,56.3394920097412
2023-04-19T17:21:16.288Z,56.86365546504008
2023-04-19T17:24:16.386Z,56.764537825125814
2023-04-19T17:27:16.290Z,56.53401893552086
2023-04-19T17:31:16.579Z,56.772063614159165
2023-04-19T17:34:17.129Z,56.627446783845755
2023-04-19T17:37:16.968Z,56.70500098093529
2023-04-19T17:41:16.573Z,56.71897066072767
2023-04-19T17:44:16.782Z,57.07703715907005
2023-04-19T17:47:18.656Z,57.003985206494406
2023-04-19T17:51:16.305Z,57.78358897167227
2023-04-19T17:54:17.449Z,57.881825522589985
2023-04-19T17:57:16.713Z,58.28454080759913
2023-04-19T18:01:16.390Z,58.52067998424142
2023-04-19T18:04:18.384Z,58.89903409634766
2023-04-19T18:07:16.162Z,59.25962234683004
2023-04-19T18:11:18.301Z,59.91552593854884
2023-04-19T18:14:16.147Z,60.05998032226609
2023-04-19T18:17:16.191Z,60.44930000692071
2023-04-19T18:21:16.479Z,60.63584772401247
2023-04-19T18:24:16.616Z,60.63178142283524
2023-04-19T18:27:16.829Z,60.69646868823537
2023-04-19T18:31:15.927Z,61.33212176102725
2023-04-19T18:34:16.068Z,61.61782295457524
2023-04-19T18:37:16.855Z,62.00694261569021
2023-04-19T18:41:16.272Z,62.56846445745131
2023-04-19T18:44:35.864Z,62.85458293597392
2023-04-19T18:47:16.645Z,63.274471790197694
2023-04-19T18:51:16.246Z,63.60946425176823
2023-04-19T18:54:16.640Z,64.02444552935543
2023-04-19T18:57:22.714Z,64.86559513764341
2023-04-19T19:01:16.589Z,65.59994368525692
2023-04-19T19:04:37.174Z,65.89224126061083
2023-04-19T19:07:34.321Z,66.68595685233286
2023-04-19T19:11:47.103Z,67.40394805114502
2023-04-19T19:14:17.175Z,68.13145680434816
2023-04-19T19:17:17.968Z,68.75365348893945
2023-04-19T19:21:17.287Z,69.39875900070504
2023-04-19T19:24:17.448Z,70.05675878565074
2023-04-19T19:27:20.211Z,70.20050476211726
2023-04-19T19:31:16.667Z,70.84369701428616
2023-04-19T19:34:25.964Z,71.1842170153875
2023-04-19T19:37:17.592Z,71.37758266295953
2023-04-19T19:44:16.793Z,71.80129880567472
2023-04-19T19:47:18.371Z,72.4753037576551
2023-04-19T19:51:41.598Z,72.93798665856595
2023-04-19T19:54:18.987Z,73.00374552308462
2023-04-19T20:01:17.891Z,73.39859938499384
2023-04-19T20:04:17.734Z,72.75684605754772
2023-04-19T20:11:16.234Z,73.22971306218317
2023-04-19T20:14:17.049Z,73.29483751490825
2023-04-19T20:17:16.809Z,73.56035321618413
2023-04-19T20:21:17.070Z,73.81938922519993
2023-04-19T20:24:16.518Z,73.80934675249426
2023-04-19T20:27:16.408Z,74.07379214575363
2023-04-19T20:31:17.096Z,74.37778299769496
2023-04-19T20:34:16.951Z,74.79586244482695
2023-04-19T20:37:18.750Z,75.00678860504979
2023-04-19T20:41:17.247Z,75.08482313130223
2023-04-19T20:44:17.216Z,75.25396408372671
2023-04-19T20:47:16.827Z,75.25053620057466
2023-04-19T20:51:16.998Z,75.26232945893923
2023-04-19T20:54:18.698Z,75.44560813680359
2023-04-19T20:57:17.217Z,75.6166412080398
2023-04-19T21:01:18.408Z,76.03811813519589
2023-04-19T21:04:17.745Z,76.3169941818206
2023-04-19T21:07:18.558Z,76.54361129592165
2023-04-19T21:11:17.922Z,77.02744164797575
2023-04-19T21:14:17.632Z,77.17283266011032
2023-04-19T21:17:18.905Z,77.60714693077631
2023-04-19T21:21:17.649Z,77.87879082305882
2023-04-19T21:24:17.521Z,77.90625476755478
2023-04-19T21:27:17.140Z,78.17163988726678
2023-04-19T21:31:16.148Z,78.10560971213424
2023-04-19T21:34:16.315Z,78.23613872640279
2023-04-19T21:37:17.512Z,78.12245967672666
2023-04-19T21:41:16.322Z,77.93271716519095
2023-04-19T21:44:16.502Z,77.76629245260855
2023-04-19T21:47:16.396Z,77.75262652824956
2023-04-19T21:51:16.285Z,77.62111768549354
2023-04-19T21:54:26.661Z,77.75679897776459
2023-04-19T21:57:17.696Z,77.97072573684426
2023-04-19T22:01:17.174Z,78.32803765727577
2023-04-19T22:04:17.080Z,78.78162445252755
2023-04-19T22:07:18.870Z,79.09857058817579
2023-04-19T22:11:15.855Z,79.69193681130054
2023-04-19T22:14:17.723Z,79.91240801257517
2023-04-19T22:17:19.128Z,80.06315274616999
2023-04-19T22:21:16.147Z,80.52919901191979
2023-04-19T22:24:16.585Z,80.54485922856867
2023-04-19T22:27:16.519Z,80.51433445862811
2023-04-19T22:31:16.364Z,80.18978154006619
2023-04-19T22:34:16.716Z,79.82946999839962
2023-04-19T22:37:16.809Z,79.62174951525688
2023-04-19T22:41:16.128Z,79.33698975443362
2023-04-19T22:44:16.193Z,79.18512824388993
2023-04-19T22:47:16.596Z,79.41247054409197
2023-04-19T23:01:16.141Z,80.28840889131861
2023-04-19T23:04:16.728Z,80.27495455308488
2023-04-19T23:07:16.637Z,80.32265902769699
2023-04-19T23:11:16.770Z,80.49757935827192
2023-04-19T23:14:18.530Z,80.50590168192957
2023-04-19T23:17:17.289Z,80.51752383866125
2023-04-19T23:21:15.941Z,80.73322828315177
2023-04-19T23:24:16.952Z,80.83498841227033
2023-04-19T23:27:16.564Z,80.74925927632472
2023-04-19T23:31:16.148Z,80.60697473215541
2023-04-19T23:34:16.738Z,80.47435549609892
2023-04-19T23:37:16.319Z,80.40665722326546
2023-04-19T23:41:16.087Z,80.24502729897772
2023-04-19T23:44:16.447Z,80.49108142241906
2023-04-19T23:47:16.527Z,80.29219695368371
2023-04-19T23:51:16.350Z,80.36150620197664
2023-04-19T23:54:21.028Z,80.45170527334821
2023-04-19T23:57:18.422Z,80.8857669648914
